Time;durP1;ratioP1;P1;durP2;ratioP2;P2;SDS_P1;SDS_P2;PMS_P1;PMS_P2;Temp;Humidity;BMP_temperature;BMP_pressure;BME280_temperature;BME280_humidity;BME280_pressure;Samples;Min_cycle;Max_cycle;Signal;HPM_P1;HPM_P2
2023/07/06 00:01:56;;;;;;;7.18;3.45;;;;;;;11.54;100.00;101367.31;4969187;28;20193;-74
2023/07/06 00:04:43;;;;;;;6.10;3.30;;;;;;;11.54;100.00;101367.31;4967764;28;20073;-74
2023/07/06 00:07:29;;;;;;;5.95;3.30;;;;;;;11.53;100.00;101364.72;4966126;28;20035;-74
2023/07/06 00:10:15;;;;;;;5.10;3.30;;;;;;;11.52;100.00;101358.56;4945740;28;21983;-74
2023/07/06 00:13:01;;;;;;;6.57;3.58;;;;;;;11.51;100.00;101363.91;4969269;28;20108;-74
2023/07/06 00:15:48;;;;;;;8.50;3.50;;;;;;;11.50;100.00;101375.47;4967281;28;20504;-74
2023/07/06 00:18:34;;;;;;;6.15;3.67;;;;;;;11.50;100.00;101376.31;4958509;28;20042;-74
2023/07/06 00:21:20;;;;;;;5.95;3.13;;;;;;;11.49;100.00;101381.69;4969078;28;20050;-75
2023/07/06 00:24:07;;;;;;;7.28;3.10;;;;;;;11.50;100.00;101375.47;4971041;28;20096;-75
2023/07/06 00:26:53;;;;;;;5.47;3.53;;;;;;;11.49;100.00;101379.88;4957406;28;20494;-75
2023/07/06 00:29:46;;;;;;;5.78;3.55;;;;;;;11.49;100.00;101385.19;4968775;28;20137;-75
2023/07/06 00:32:32;;;;;;;8.50;3.60;;;;;;;11.49;100.00;101382.53;4968517;28;20056;-75
2023/07/06 00:35:19;;;;;;;5.40;3.50;;;;;;;11.48;100.00;101386.13;4954105;28;20038;-75
2023/07/06 00:38:09;;;;;;;5.90;4.32;;;;;;;11.46;100.00;101377.38;4969685;28;22223;-75
2023/07/06 00:40:57;;;;;;;6.18;3.90;;;;;;;11.44;100.00;101384.50;4968722;28;20560;-75
2023/07/06 00:43:50;;;;;;;5.53;3.53;;;;;;;11.43;100.00;101381.94;4968258;28;20528;-75
2023/07/06 00:46:39;;;;;;;5.55;3.53;;;;;;;11.40;100.00;101385.56;4966821;28;20042;-75
2023/07/06 00:49:24;;;;;;;5.28;3.72;;;;;;;11.39;100.00;101391.81;4958858;28;20043;-75
2023/07/06 00:52:10;;;;;;;3.83;3.38;;;;;;;11.37;100.00;101388.31;4969026;28;21076;-75
2023/07/06 00:54:56;;;;;;;6.72;3.80;;;;;;;11.34;100.00;101391.97;4954401;28;20038;-75
2023/07/06 00:57:45;;;;;;;6.78;3.60;;;;;;;11.33;100.00;101389.41;4970118;28;20061;-75
2023/07/06 01:00:31;;;;;;;8.73;4.15;;;;;;;11.32;100.00;101396.47;4965800;28;20524;-75
2023/07/06 01:03:19;;;;;;;8.25;3.42;;;;;;;11.32;100.00;101395.63;4957749;28;20031;-75
2023/07/06 01:06:07;;;;;;;7.30;3.90;;;;;;;11.32;100.00;101398.28;4957023;28;20037;-75
2023/07/06 01:08:55;;;;;;;5.63;3.88;;;;;;;11.33;100.00;101400.84;4971033;28;20544;-75
2023/07/06 01:11:43;;;;;;;6.38;4.03;;;;;;;11.32;100.00;101400.94;4944967;28;20035;-76
2023/07/06 01:14:31;;;;;;;5.05;3.72;;;;;;;11.32;100.00;101400.94;4965243;28;20041;-74
2023/07/06 01:17:26;;;;;;;6.70;3.40;;;;;;;11.31;100.00;101396.53;4949659;28;20426;-75
2023/07/06 01:20:21;;;;;;;8.13;3.75;;;;;;;11.30;100.00;101397.44;4961460;28;20038;-75
2023/07/06 01:23:34;;;;;;;5.97;3.78;;;;;;;11.29;100.00;101393.97;4970199;28;20050;-75
2023/07/06 01:26:35;;;;;;;4.85;3.45;;;;;;;11.28;100.00;101395.72;4958709;28;20034;-76
2023/07/06 01:30:16;;;;;;;4.03;3.28;;;;;;;11.27;100.00;101395.78;4956167;28;20057;-76
2023/07/06 01:33:07;;;;;;;5.50;3.75;;;;;;;11.27;100.00;101401.97;4953973;28;20038;-76
2023/07/06 01:35:58;;;;;;;4.68;3.38;;;;;;;11.26;100.00;101400.25;4966452;28;20042;-75
2023/07/06 01:38:47;;;;;;;7.22;3.45;;;;;;;11.26;100.00;101397.59;4954102;28;20128;-75
2023/07/06 01:41:33;;;;;;;5.35;3.67;;;;;;;11.26;100.00;101399.38;4968842;28;20039;-75
2023/07/06 01:44:19;;;;;;;6.68;3.97;;;;;;;11.25;100.00;101401.16;4968322;28;20477;-75
2023/07/06 01:47:05;;;;;;;6.95;3.97;;;;;;;11.24;100.00;101398.56;4966677;28;20035;-76
2023/07/06 01:49:51;;;;;;;5.53;4.00;;;;;;;11.24;100.00;101399.41;4967326;28;20145;-75
2023/07/06 01:52:56;;;;;;;7.35;3.67;;;;;;;11.24;100.00;101395.91;4954002;28;20034;-76
2023/07/06 01:55:45;;;;;;;8.68;4.28;;;;;;;11.26;100.00;101396.72;4956709;28;20478;-75
2023/07/06 01:59:00;;;;;;;5.18;3.60;;;;;;;11.27;100.00;101395.78;4959913;28;20030;-75
2023/07/06 02:01:52;;;;;;;4.95;3.33;;;;;;;11.27;100.00;101396.66;4953421;28;20038;-75
2023/07/06 02:04:43;;;;;;;5.72;3.70;;;;;;;11.28;100.00;101394.88;4966432;28;20133;-75
2023/07/06 02:07:31;;;;;;;4.72;3.63;;;;;;;11.28;100.00;101393.09;4965131;28;20584;-75
2023/07/06 02:10:19;;;;;;;6.55;3.83;;;;;;;11.27;100.00;101391.38;4967461;28;20066;-75
2023/07/06 02:13:05;;;;;;;5.32;4.05;;;;;;;11.26;100.00;101384.34;4952162;28;20049;-75
2023/07/06 02:15:51;;;;;;;6.88;4.00;;;;;;;11.27;100.00;101391.38;4964516;28;20377;-75
2023/07/06 02:18:39;;;;;;;4.63;3.92;;;;;;;11.26;100.00;101387.00;4966849;28;20397;-75
2023/07/06 02:21:25;;;;;;;5.88;4.10;;;;;;;11.25;100.00;101398.53;4971881;28;20117;-76
2023/07/06 02:24:12;;;;;;;5.28;3.95;;;;;;;11.24;100.00;101391.47;4979576;28;20125;-76
2023/07/06 02:26:58;;;;;;;8.00;4.40;;;;;;;11.25;100.00;101392.34;4977759;28;20061;-75
2023/07/06 02:29:43;;;;;;;5.63;3.90;;;;;;;11.27;100.00;101395.78;4975417;28;20081;-75
2023/07/06 02:32:29;;;;;;;7.85;4.20;;;;;;;11.27;100.00;101387.84;4979383;28;20041;-75
2023/07/06 02:35:15;;;;;;;8.20;4.07;;;;;;;11.27;100.00;101388.72;4982460;28;20134;-75
2023/07/06 02:38:01;;;;;;;6.80;4.13;;;;;;;11.28;100.00;101386.94;4979306;28;20663;-75
2023/07/06 02:40:48;;;;;;;6.78;4.03;;;;;;;11.30;100.00;101394.81;4979618;28;20116;-76
2023/07/06 02:43:37;;;;;;;6.00;4.13;;;;;;;11.32;100.00;101385.03;4982112;28;20210;-75
2023/07/06 02:46:23;;;;;;;6.10;3.95;;;;;;;11.34;100.00;101393.78;4980887;28;20092;-75
2023/07/06 02:49:08;;;;;;;6.65;4.40;;;;;;;11.37;100.00;101390.97;4976436;28;20702;-75
2023/07/06 02:51:55;;;;;;;5.40;3.72;;;;;;;11.39;100.00;101397.09;4980980;28;20035;-76
2023/07/06 02:54:41;;;;;;;5.05;3.40;;;;;;;11.43;100.00;101398.69;4970676;28;20486;-75
2023/07/06 02:57:31;;;;;;;7.43;4.40;;;;;;;11.46;100.00;101400.34;4985018;28;20060;-75
2023/07/06 03:00:17;;;;;;;6.13;4.28;;;;;;;11.50;100.00;101404.63;4978253;28;20096;-75
2023/07/06 03:03:03;;;;;;;6.75;4.47;;;;;;;11.52;100.00;101395.69;4983145;28;20061;-75
2023/07/06 03:05:49;;;;;;;5.72;4.10;;;;;;;11.56;100.00;101412.34;4973105;28;20438;-75
2023/07/06 03:08:35;;;;;;;7.07;3.90;;;;;;;11.57;100.00;101408.75;4969758;28;20862;-76
2023/07/06 03:11:20;;;;;;;8.07;4.20;;;;;;;11.63;100.00;101407.63;4983319;28;20875;-75
2023/07/06 03:14:06;;;;;;;6.57;4.43;;;;;;;11.65;100.00;101411.06;4982901;28;20952;-76
2023/07/06 03:16:53;;;;;;;10.95;5.15;;;;;;;11.70;100.00;101413.56;4984148;28;20037;-74
2023/07/06 03:19:39;;;;;;;7.32;4.95;;;;;;;11.69;100.00;101415.34;4977726;28;20026;-74
2023/07/06 03:22:25;;;;;;;7.18;5.18;;;;;;;11.69;100.00;101412.69;4982485;28;21977;-74
2023/07/06 03:25:13;;;;;;;8.77;5.18;;;;;;;11.71;100.00;101421.44;4989486;28;20046;-74
2023/07/06 03:27:59;;;;;;;8.93;5.13;;;;;;;11.73;100.00;101416.06;4987817;28;20128;-74
2023/07/06 03:30:45;;;;;;;7.93;5.53;;;;;;;11.75;100.00;101417.75;4986494;28;20034;-75
2023/07/06 03:33:30;;;;;;;6.95;5.40;;;;;;;11.76;100.00;101421.28;4983540;28;20037;-75
2023/07/06 03:36:16;;;;;;;8.85;4.57;;;;;;;11.77;100.00;101413.22;4987716;28;20104;-74
2023/07/06 03:39:02;;;;;;;8.43;5.30;;;;;;;11.79;100.00;101413.16;4986325;28;20127;-74
2023/07/06 03:41:48;;;;;;;7.68;6.07;;;;;;;11.80;100.00;101409.59;4958940;28;20030;-74
2023/07/06 03:44:36;;;;;;;9.20;5.75;;;;;;;11.81;100.00;101414.84;4984660;28;20061;-75
2023/07/06 03:47:27;;;;;;;9.35;5.60;;;;;;;11.82;100.00;101408.59;4986148;28;20065;-74
2023/07/06 03:50:14;;;;;;;8.55;5.65;;;;;;;11.84;100.00;101407.66;4971613;28;20038;-74
2023/07/06 03:53:00;;;;;;;11.63;5.75;;;;;;;11.85;100.00;101422.66;4975918;28;20125;-74
2023/07/06 03:55:46;;;;;;;8.07;5.57;;;;;;;11.85;100.00;101418.22;4985924;28;20034;-74
2023/07/06 03:58:33;;;;;;;8.23;5.25;;;;;;;11.87;100.00;101420.81;4988200;28;20130;-73
2023/07/06 04:01:19;;;;;;;7.93;5.55;;;;;;;11.89;100.00;101418.97;4973261;28;20510;-74
2023/07/06 04:04:06;;;;;;;10.38;6.00;;;;;;;11.92;100.00;101421.47;4985511;28;20054;-75
2023/07/06 04:06:52;;;;;;;9.07;6.28;;;;;;;11.92;100.00;101417.03;4986087;28;20038;-75
2023/07/06 04:09:39;;;;;;;9.77;5.60;;;;;;;11.93;100.00;101423.22;4975556;28;20087;-75
2023/07/06 04:12:28;;;;;;;15.60;6.30;;;;;;;11.93;100.00;101425.88;4984918;28;20113;-75
2023/07/06 04:15:17;;;;;;;11.48;6.38;;;;;;;11.92;100.00;101430.31;4970391;28;20038;-75
2023/07/06 04:18:06;;;;;;;11.00;6.25;;;;;;;11.92;100.00;101432.06;4985817;28;20086;-75
2023/07/06 04:20:55;;;;;;;10.48;6.40;;;;;;;11.92;100.00;101430.31;4971014;28;20508;-75
2023/07/06 04:23:40;;;;;;;9.80;6.43;;;;;;;11.92;100.00;101432.97;4983422;28;20448;-75
2023/07/06 04:26:32;;;;;;;11.80;7.00;;;;;;;11.94;100.00;101432.91;4986460;28;20029;-74
2023/07/06 04:29:18;;;;;;;11.60;7.10;;;;;;;11.95;100.00;101430.16;4986405;28;20049;-74
2023/07/06 04:32:05;;;;;;;10.10;7.22;;;;;;;11.98;100.00;101428.34;4984501;28;20099;-74
2023/07/06 04:34:51;;;;;;;12.07;6.32;;;;;;;12.01;100.00;101431.72;4985779;28;20516;-75
2023/07/06 04:37:41;;;;;;;10.10;7.18;;;;;;;12.04;100.00;101434.25;4981744;28;20501;-74
2023/07/06 04:40:30;;;;;;;11.85;7.18;;;;;;;12.08;100.00;101438.53;4986023;28;22157;-74
2023/07/06 04:43:16;;;;;;;12.27;7.82;;;;;;;12.13;100.00;101437.44;4986114;28;20452;-75
2023/07/06 04:46:02;;;;;;;12.68;6.90;;;;;;;12.17;100.00;101439.94;4978452;28;20045;-75
2023/07/06 04:48:48;;;;;;;14.07;6.88;;;;;;;12.24;100.00;101443.16;4985090;28;20129;-73
2023/07/06 04:51:35;;;;;;;12.95;7.32;;;;;;;12.30;100.00;101445.56;4985486;28;20045;-74
2023/07/06 04:54:21;;;;;;;13.13;6.97;;;;;;;12.38;100.00;101447.00;4985772;28;21570;-74
2023/07/06 04:57:07;;;;;;;22.35;8.20;;;;;;;12.45;100.00;101453.78;4986517;28;20038;-73
2023/07/06 04:59:56;;;;;;;13.77;7.55;;;;;;;12.53;100.00;101451.66;4987286;28;20449;-74
2023/07/06 05:02:42;;;;;;;18.30;7.70;;;;;;;12.63;100.00;101455.63;4978583;28;20498;-74
2023/07/06 05:05:32;;;;;;;16.42;7.63;;;;;;;12.74;100.00;101454.28;4977595;28;20045;-74
2023/07/06 05:08:19;;;;;;;16.13;7.45;;;;;;;12.84;100.00;101455.59;4987007;28;20949;-73
2023/07/06 05:11:05;;;;;;;13.20;7.35;;;;;;;12.95;100.00;101451.56;4977511;28;20034;-73
2023/07/06 05:13:51;;;;;;;16.52;7.53;;;;;;;13.08;100.00;101454.56;4985559;28;20038;-73
2023/07/06 05:16:37;;;;;;;16.52;7.60;;;;;;;13.21;100.00;101452.16;4986364;28;20186;-74
2023/07/06 05:19:23;;;;;;;16.95;7.65;;;;;;;13.33;100.00;101456.06;4971845;28;20584;-74
2023/07/06 05:22:09;;;;;;;15.68;8.05;;;;;;;13.42;100.00;101459.13;4964529;28;20125;-74
2023/07/06 05:24:55;;;;;;;22.02;8.52;;;;;;;13.55;100.00;101458.56;4987191;28;20124;-74
2023/07/06 05:27:41;;;;;;;19.90;8.20;;;;;;;13.64;100.00;101452.81;4985682;28;20140;-73
2023/07/06 05:30:27;;;;;;;16.95;8.15;;;;;;;13.73;100.00;101467.47;4980851;28;20042;-75
2023/07/06 05:33:14;;;;;;;17.55;8.13;;;;;;;13.82;100.00;101466.16;4970179;28;20629;-75
2023/07/06 05:35:59;;;;;;;15.25;7.80;;;;;;;13.90;100.00;101463.13;4983743;28;20036;-74
2023/07/06 05:38:45;;;;;;;13.65;7.85;;;;;;;14.00;100.00;101469.69;4983511;28;20100;-74
2023/07/06 05:41:31;;;;;;;15.52;7.38;;;;;;;14.10;100.00;101467.44;4985042;28;20239;-74
2023/07/06 05:44:17;;;;;;;13.63;6.82;;;;;;;14.22;100.00;101476.63;4983427;28;20049;-74
2023/07/06 05:47:02;;;;;;;15.68;7.35;;;;;;;14.35;100.00;101479.50;4974969;28;20034;-74
2023/07/06 05:49:48;;;;;;;16.45;7.68;;;;;;;14.48;100.00;101471.72;4983919;28;20120;-74
2023/07/06 05:52:34;;;;;;;16.13;6.97;;;;;;;14.63;100.00;101480.72;4984649;28;20117;-75
2023/07/06 05:55:20;;;;;;;16.38;6.97;;;;;;;14.80;100.00;101470.09;4984015;28;20033;-75
2023/07/06 05:58:06;;;;;;;14.35;7.47;;;;;;;15.00;100.00;101478.81;4985980;28;20038;-75
2023/07/06 06:00:52;;;;;;;11.65;7.00;;;;;;;15.21;100.00;101470.59;4971495;28;20543;-75
2023/07/06 06:03:40;;;;;;;12.63;7.07;;;;;;;15.42;100.00;101481.00;4984198;28;20038;-75
2023/07/06 06:06:26;;;;;;;18.27;7.20;;;;;;;15.59;100.00;101485.41;4968938;28;20039;-75
2023/07/06 06:09:13;;;;;;;14.18;6.60;;;;;;;15.81;100.00;101479.69;4983143;28;20046;-75
2023/07/06 06:12:00;;;;;;;10.73;6.05;;;;;;;16.00;100.00;101484.84;4972815;28;20413;-75
2023/07/06 06:14:50;;;;;;;12.25;5.53;;;;;;;16.23;100.00;101487.13;4981452;28;20616;-75
2023/07/06 06:17:40;;;;;;;9.50;5.60;;;;;;;16.44;100.00;101484.97;4971679;28;20397;-76
2023/07/06 06:20:25;;;;;;;15.60;5.45;;;;;;;16.67;100.00;101490.75;4982262;28;20334;-76
2023/07/06 06:23:13;;;;;;;9.98;4.47;;;;;;;16.85;100.00;101496.78;4979095;28;20078;-76
2023/07/06 06:25:59;;;;;;;9.65;5.03;;;;;;;17.02;100.00;101502.91;4971095;28;20144;-76
2023/07/06 06:28:45;;;;;;;11.10;4.75;;;;;;;17.23;100.00;101503.38;4969977;28;20050;-75
2023/07/06 06:31:32;;;;;;;8.98;4.47;;;;;;;17.40;100.00;101509.47;4979898;28;20167;-76
2023/07/06 06:34:18;;;;;;;7.13;4.03;;;;;;;17.54;100.00;101511.25;4982476;28;20049;-75
2023/07/06 06:37:05;;;;;;;6.95;4.03;;;;;;;17.72;100.00;101506.53;4957612;28;20540;-75
2023/07/06 06:39:53;;;;;;;8.75;4.10;;;;;;;17.98;100.00;101522.69;4980696;28;20096;-75
2023/07/06 06:42:39;;;;;;;8.27;3.60;;;;;;;18.17;100.00;101525.91;4982228;28;20034;-75
2023/07/06 06:45:26;;;;;;;5.38;2.50;;;;;;;18.34;100.00;101528.41;4980888;28;20037;-76
2023/07/06 06:48:12;;;;;;;6.35;2.63;;;;;;;18.51;100.00;101535.31;4974370;28;20037;-75
2023/07/06 06:50:59;;;;;;;5.35;2.38;;;;;;;18.63;100.00;101534.44;4982017;28;20066;-75
2023/07/06 06:53:46;;;;;;;3.95;2.30;;;;;;;18.78;100.00;101524.47;4981689;28;20052;-76
2023/07/06 06:56:32;;;;;;;8.10;2.50;;;;;;;18.88;100.00;101532.75;4982034;28;20069;-75
2023/07/06 06:59:18;;;;;;;5.20;2.25;;;;;;;18.84;100.00;101533.91;4982497;28;20043;-75
2023/07/06 07:02:04;;;;;;;7.85;2.63;;;;;;;18.76;100.00;101541.66;4965881;28;20164;-75
2023/07/06 07:04:49;;;;;;;7.57;2.97;;;;;;;18.72;100.00;101532.94;4976614;28;20038;-73
2023/07/06 07:07:38;;;;;;;5.95;2.13;;;;;;;18.80;100.00;101541.31;4972898;28;20060;-74
2023/07/06 07:10:24;;;;;;;4.18;2.17;;;;;;;18.95;100.00;101544.75;4974354;28;20050;-73
2023/07/06 07:13:10;;;;;;;5.07;2.42;;;;;;;19.09;100.00;101535.78;4981291;28;20046;-75
2023/07/06 07:15:56;;;;;;;9.20;2.60;;;;;;;19.07;100.00;101551.13;4978207;28;20074;-75
2023/07/06 07:18:43;;;;;;;6.63;2.00;;;;;;;19.01;100.00;101548.81;4976842;28;20050;-75
2023/07/06 07:21:29;;;;;;;5.82;2.42;;;;;;;19.08;100.00;101550.19;4967153;28;21232;-75
2023/07/06 07:24:14;;;;;;;4.80;1.90;;;;;;;19.10;100.00;101547.34;4978404;28;21952;-75
2023/07/06 07:27:00;;;;;;;3.75;1.60;;;;;;;19.04;100.00;101554.03;4978187;28;21867;-75
2023/07/06 07:29:47;;;;;;;3.70;2.40;;;;;;;18.91;100.00;101559.34;4965481;28;20045;-74
2023/07/06 07:32:33;;;;;;;3.63;1.95;;;;;;;18.90;100.00;101551.44;4963295;28;20043;-74
2023/07/06 07:35:19;;;;;;;2.90;1.75;;;;;;;18.92;100.00;101557.53;4967333;28;20401;-73
2023/07/06 07:38:06;;;;;;;4.68;2.03;;;;;;;19.06;100.00;101556.63;4978019;28;21065;-74
2023/07/06 07:40:59;;;;;;;5.40;1.70;;;;;;;19.30;100.00;101554.00;4979003;28;20031;-73
2023/07/06 07:43:47;;;;;;;3.33;1.38;;;;;;;19.45;100.00;101562.75;4976710;28;20038;-74
2023/07/06 07:46:33;;;;;;;3.72;1.83;;;;;;;19.56;100.00;101556.66;4966538;28;20576;-73
2023/07/06 07:49:21;;;;;;;5.80;2.20;;;;;;;19.58;100.00;101562.75;4965955;28;20038;-73
2023/07/06 07:52:09;;;;;;;2.83;1.50;;;;;;;19.58;100.00;101561.88;4969530;28;20378;-74
2023/07/06 07:54:55;;;;;;;3.33;1.33;;;;;;;19.40;100.00;101570.31;4981427;28;20327;-73
2023/07/06 07:57:43;;;;;;;2.15;1.30;;;;;;;19.32;100.00;101570.84;4966033;28;20511;-73
2023/07/06 08:00:30;;;;;;;3.15;1.70;;;;;;;19.42;100.00;101568.38;4980001;28;20048;-72
2023/07/06 08:03:16;;;;;;;2.10;1.40;;;;;;;19.50;100.00;101574.03;4977085;28;20042;-73
2023/07/06 08:06:05;;;;;;;5.20;1.60;;;;;;;19.63;100.00;101568.66;4974303;28;20752;-73
2023/07/06 08:08:51;;;;;;;4.22;1.42;;;;;;;19.81;100.00;101573.63;4988220;28;20504;-73
2023/07/06 08:11:38;;;;;;;1.70;1.23;;;;;;;19.99;100.00;101571.44;4986226;28;20049;-73
2023/07/06 08:14:40;;;;;;;2.15;1.50;;;;;;;20.04;100.00;101571.13;4987129;28;20034;-73
2023/07/06 08:17:26;;;;;;;1.92;1.25;;;;;;;19.90;100.00;101575.66;4986370;28;20046;-73
2023/07/06 08:20:12;;;;;;;1.92;1.20;;;;;;;19.92;100.00;101575.53;4982207;28;20073;-74
2023/07/06 08:23:01;;;;;;;3.47;1.67;;;;;;;20.02;100.00;101578.41;4977620;28;20042;-74
2023/07/06 08:25:48;;;;;;;1.77;1.10;;;;;;;20.22;100.00;101593.09;4976133;28;20022;-74
2023/07/06 08:28:34;;;;;;;3.00;1.35;;;;;;;20.35;98.00;101588.50;4973637;28;20025;-73
2023/07/06 08:31:20;;;;;;;3.47;1.25;;;;;;;20.45;99.88;101588.66;4986887;28;20041;-75
2023/07/06 08:34:06;;;;;;;1.40;1.05;;;;;;;20.40;98.35;101590.84;4971798;28;20046;-72
2023/07/06 08:36:53;;;;;;;2.38;1.58;;;;;;;20.44;99.26;101594.97;4977948;28;20042;-74
2023/07/06 08:39:39;;;;;;;2.05;1.10;;;;;;;20.43;99.39;101604.03;4969971;28;20049;-73
2023/07/06 08:42:25;;;;;;;2.35;1.20;;;;;;;20.30;97.68;101600.53;4972414;28;20050;-73
2023/07/06 08:45:20;;;;;;;0.98;0.90;;;;;;;20.25;96.62;101611.66;4979733;28;20030;-75
2023/07/06 08:48:15;;;;;;;2.45;1.58;;;;;;;20.13;96.35;101610.75;4987879;28;20034;-74
2023/07/06 08:51:06;;;;;;;1.17;1.08;;;;;;;20.02;96.03;101608.84;4979639;28;21028;-74
2023/07/06 08:54:03;;;;;;;2.22;1.23;;;;;;;19.97;94.81;101610.16;4985295;28;20449;-74
2023/07/06 08:56:49;;;;;;;1.73;1.10;;;;;;;20.07;99.37;101617.44;4984106;28;20793;-74
2023/07/06 08:59:43;;;;;;;2.45;1.30;;;;;;;20.16;96.48;101615.03;4971029;28;20038;-74
2023/07/06 09:02:30;;;;;;;3.95;1.40;;;;;;;20.19;98.20;101615.66;4972560;28;20030;-74
2023/07/06 09:05:17;;;;;;;1.10;1.00;;;;;;;20.20;97.33;101620.06;4980624;28;20421;-74
2023/07/06 09:08:03;;;;;;;2.58;1.00;;;;;;;20.18;96.70;101624.72;4970021;28;20089;-73
2023/07/06 09:10:49;;;;;;;2.53;1.30;;;;;;;20.17;97.00;101619.44;4966455;28;20030;-73
2023/07/06 09:13:46;;;;;;;1.90;1.30;;;;;;;20.06;91.93;101622.91;4985123;28;20506;-74
2023/07/06 09:16:36;;;;;;;1.58;1.33;;;;;;;20.01;93.98;101627.78;4976033;28;20079;-74
2023/07/06 09:19:23;;;;;;;1.52;1.40;;;;;;;19.93;94.30;101634.53;4984761;28;20046;-74
2023/07/06 09:22:10;;;;;;;1.75;1.45;;;;;;;19.94;95.07;101643.47;4957554;28;20060;-73
2023/07/06 09:25:00;;;;;;;1.48;1.10;;;;;;;20.12;96.78;101633.22;4983942;28;20034;-74
2023/07/06 09:27:50;;;;;;;1.83;1.40;;;;;;;20.25;95.45;101648.44;4970109;28;20038;-73
2023/07/06 09:30:39;;;;;;;2.78;1.35;;;;;;;20.29;96.38;101641.84;4984098;28;20034;-74
2023/07/06 09:33:26;;;;;;;2.97;1.75;;;;;;;20.33;95.69;101640.66;4979488;28;20907;-73
2023/07/06 09:36:16;;;;;;;1.77;1.35;;;;;;;20.32;96.52;101653.22;4964678;28;20056;-73
2023/07/06 09:39:08;;;;;;;2.85;1.70;;;;;;;20.28;93.92;101646.38;4978067;28;20037;-73
2023/07/06 09:41:54;;;;;;;2.55;1.58;;;;;;;20.38;95.00;101641.19;4986525;28;20164;-76
2023/07/06 09:44:41;;;;;;;2.03;1.30;;;;;;;20.49;93.92;101646.59;4970222;28;20080;-75
2023/07/06 09:47:30;;;;;;;1.50;1.13;;;;;;;20.54;93.14;101642.72;4965090;28;20038;-74
2023/07/06 09:50:20;;;;;;;2.20;1.08;;;;;;;20.43;92.14;101654.28;4980687;28;20034;-74
2023/07/06 09:53:11;;;;;;;3.13;1.10;;;;;;;20.26;91.30;101655.53;4980018;28;20392;-74
2023/07/06 09:55:59;;;;;;;2.88;1.08;;;;;;;20.04;91.38;101654.44;4956996;28;20118;-74
2023/07/06 09:58:50;;;;;;;3.97;1.08;;;;;;;19.91;92.87;101659.78;4966332;28;20088;-74
2023/07/06 10:01:43;;;;;;;3.47;1.10;;;;;;;19.71;90.51;101667.47;4969631;28;20037;-73
2023/07/06 10:04:43;;;;;;;1.95;1.10;;;;;;;19.56;91.76;101666.75;4965051;28;21057;-73
2023/07/06 10:07:53;;;;;;;3.20;1.33;;;;;;;19.33;87.30;101666.53;4965829;28;20041;-73
2023/07/06 10:11:12;;;;;;;1.70;1.15;;;;;;;19.20;89.14;101676.38;4960731;28;20038;-74
2023/07/06 10:14:13;;;;;;;1.30;1.20;;;;;;;19.01;89.31;101672.25;4976194;28;20038;-74
2023/07/06 10:17:12;;;;;;;1.42;1.02;;;;;;;18.91;89.94;101682.75;4974310;28;20042;-74
2023/07/06 10:20:19;;;;;;;2.35;1.00;;;;;;;18.80;88.51;101682.63;4985770;28;20908;-75
2023/07/06 10:23:09;;;;;;;3.00;1.02;;;;;;;18.73;89.96;101677.69;4976352;28;20453;-74
2023/07/06 10:25:58;;;;;;;1.55;1.20;;;;;;;18.71;91.26;101676.06;4977859;28;20041;-74
2023/07/06 10:28:59;;;;;;;2.03;1.10;;;;;;;18.72;91.46;101678.66;4984299;28;20138;-75
2023/07/06 10:31:52;;;;;;;2.83;1.15;;;;;;;18.89;90.36;101673.94;4979748;28;20393;-74
2023/07/06 10:34:43;;;;;;;1.30;0.90;;;;;;;19.22;91.50;101669.06;4969683;28;20030;-74
2023/07/06 10:37:31;;;;;;;2.45;0.95;;;;;;;19.65;91.27;101667.91;4983093;28;20069;-74
2023/07/06 10:40:27;;;;;;;1.13;1.00;;;;;;;20.01;88.19;101668.06;4972935;28;20116;-75
2023/07/06 10:43:13;;;;;;;0.98;0.85;;;;;;;20.16;86.52;101666.94;4968574;28;20727;-75
2023/07/06 10:46:02;;;;;;;2.00;0.88;;;;;;;20.18;86.92;101672.22;4964086;28;20030;-74
2023/07/06 10:48:54;;;;;;;1.98;1.10;;;;;;;20.35;81.53;101670.97;4984074;28;20038;-74
2023/07/06 10:51:50;;;;;;;1.38;0.73;;;;;;;20.47;82.68;101680.81;4983660;28;20045;-75
2023/07/06 10:54:36;;;;;;;1.40;0.90;;;;;;;20.60;85.65;101667.28;4985487;28;20049;-75
2023/07/06 10:57:22;;;;;;;1.00;0.90;;;;;;;20.82;85.69;101680.97;4959431;28;20630;-74
2023/07/06 11:00:16;;;;;;;1.92;0.82;;;;;;;20.80;79.37;101688.31;4973830;28;20116;-74
2023/07/06 11:03:02;;;;;;;1.95;1.08;;;;;;;20.79;83.27;101694.63;4984738;28;20039;-74
2023/07/06 11:06:05;;;;;;;2.63;0.90;;;;;;;20.77;80.10;101689.41;4960509;28;20076;-75
2023/07/06 11:09:07;;;;;;;0.85;0.77;;;;;;;20.81;78.57;101698.09;4988092;28;20715;-74
2023/07/06 11:11:54;;;;;;;1.23;0.88;;;;;;;20.75;79.88;101697.56;4984702;28;20121;-75
2023/07/06 11:14:42;;;;;;;1.48;0.82;;;;;;;20.74;81.80;101693.16;4984862;28;20018;-77
2023/07/06 11:17:36;;;;;;;2.55;0.90;;;;;;;20.69;79.84;101695.34;4983528;28;20105;-77
2023/07/06 11:20:28;;;;;;;1.10;0.75;;;;;;;20.63;79.88;101699.38;4951826;28;20536;-77
2023/07/06 11:23:16;;;;;;;1.40;0.68;;;;;;;20.56;80.63;101703.50;4978063;28;20429;-75
2023/07/06 11:26:26;;;;;;;1.65;0.85;;;;;;;20.52;81.56;101704.69;4983900;28;20133;-74
2023/07/06 11:29:12;;;;;;;2.15;0.95;;;;;;;20.65;82.94;101709.16;4969911;28;20042;-77
2023/07/06 11:32:13;;;;;;;1.98;1.13;;;;;;;20.79;81.29;101702.72;4979229;28;20034;-75
2023/07/06 11:35:30;;;;;;;1.75;0.85;;;;;;;21.00;82.39;101706.50;4962477;28;21983;-75
2023/07/06 11:38:26;;;;;;;0.80;0.80;;;;;;;21.22;82.16;101703.97;4981232;28;20034;-75
2023/07/06 11:41:18;;;;;;;3.90;1.10;;;;;;;21.28;79.92;101708.88;4973496;28;20037;-75
2023/07/06 11:44:15;;;;;;;2.05;1.00;;;;;;;21.33;79.77;101705.84;4982742;28;20584;-74
2023/07/06 11:47:16;;;;;;;2.85;1.10;;;;;;;21.23;81.18;101711.06;4979281;28;20050;-74
2023/07/06 11:50:07;;;;;;;1.90;0.90;;;;;;;21.19;81.87;101709.63;4961809;28;20066;-74
2023/07/06 11:53:17;;;;;;;2.80;1.15;;;;;;;21.19;82.13;101710.44;4979103;28;20046;-74
2023/07/06 11:56:19;;;;;;;2.28;0.90;;;;;;;21.27;78.79;101694.59;4982276;28;20042;-76
2023/07/06 11:59:15;;;;;;;3.27;1.07;;;;;;;21.41;81.06;101709.66;4981591;28;20120;-75
2023/07/06 12:02:03;;;;;;;3.20;1.00;;;;;;;21.42;80.53;101714.06;4968257;28;20048;-75
2023/07/06 12:04:50;;;;;;;2.15;1.00;;;;;;;21.34;79.85;101711.09;4981588;28;20035;-75
2023/07/06 12:07:36;;;;;;;1.75;1.02;;;;;;;21.39;80.25;101705.34;4964809;28;20060;-75
2023/07/06 12:10:22;;;;;;;1.08;0.80;;;;;;;21.50;81.14;101708.06;4975826;28;20055;-75
2023/07/06 12:13:21;;;;;;;1.08;0.93;;;;;;;21.61;77.86;101719.84;4963383;28;20046;-76
2023/07/06 12:16:11;;;;;;;1.55;1.00;;;;;;;21.72;79.84;101717.19;4948038;28;20089;-76
2023/07/06 12:19:08;;;;;;;2.17;1.30;;;;;;;21.77;77.64;101716.81;4983865;28;20034;-75
2023/07/06 12:21:55;;;;;;;1.50;1.10;;;;;;;21.79;79.66;101722.94;4969846;28;20113;-76
2023/07/06 12:24:42;;;;;;;1.92;1.10;;;;;;;21.78;79.59;101722.09;4966287;28;20046;-74
2023/07/06 12:27:30;;;;;;;1.75;0.90;;;;;;;21.83;80.16;101727.97;4954250;28;20041;-74
2023/07/06 12:30:17;;;;;;;3.08;1.08;;;;;;;21.98;79.71;101725.03;4962667;28;20037;-75
2023/07/06 12:33:05;;;;;;;1.15;0.95;;;;;;;22.00;78.93;101728.44;4981136;28;20940;-75
2023/07/06 12:35:53;;;;;;;1.27;0.88;;;;;;;21.92;78.23;101731.78;4972287;28;20211;-75
2023/07/06 12:38:39;;;;;;;3.72;1.15;;;;;;;21.78;77.88;101729.31;4972637;28;20049;-75
2023/07/06 12:41:25;;;;;;;1.70;0.90;;;;;;;21.80;75.71;101730.06;4971462;28;20030;-77
2023/07/06 12:44:17;;;;;;;1.15;0.88;;;;;;;21.78;75.38;101723.94;4982649;28;20042;-78
2023/07/06 12:47:24;;;;;;;2.65;1.20;;;;;;;21.87;73.24;101735.78;4966521;28;20049;-77
2023/07/06 12:50:16;;;;;;;2.13;1.10;;;;;;;21.86;77.36;101736.78;4979454;28;20033;-77
2023/07/06 12:53:08;;;;;;;1.92;1.10;;;;;;;21.82;78.39;101742.44;4981069;28;20054;-77
2023/07/06 12:56:06;;;;;;;2.33;1.00;;;;;;;21.90;74.10;101735.56;4966925;28;20568;-76
2023/07/06 12:58:59;;;;;;;1.92;0.80;;;;;;;21.96;77.13;101730.53;4978203;28;20041;-77
2023/07/06 13:01:45;;;;;;;1.52;0.88;;;;;;;22.09;77.44;101730.41;4983556;28;20038;-77